sensor_id;sensor_type;location;lat;lon;timestamp;pressure;altitude;pressure_sealevel;temperature;humidity
49627;BME280;35527;54.616;39.786;2023-08-21T00:01:39;99815.31;;;18.47;100.00
49627;BME280;35527;54.616;39.786;2023-08-21T00:04:44;99804.75;;;18.36;100.00
49627;BME280;35527;54.616;39.786;2023-08-21T00:07:51;99807.16;;;18.39;100.00
49627;BME280;35527;54.616;39.786;2023-08-21T00:10:55;99805.81;;;18.33;100.00
49627;BME280;35527;54.616;39.786;2023-08-21T00:13:58;99775.06;;;18.11;100.00
49627;BME280;35527;54.616;39.786;2023-08-21T00:17:03;99812.84;;;18.33;100.00
49627;BME280;35527;54.616;39.786;2023-08-21T00:20:07;99802.06;;;18.24;100.00
49627;BME280;35527;54.616;39.786;2023-08-21T00:23:12;99804.38;;;18.29;100.00
49627;BME280;35527;54.616;39.786;2023-08-21T00:26:16;99786.50;;;18.10;100.00
49627;BME280;35527;54.616;39.786;2023-08-21T00:29:22;99804.19;;;18.19;100.00
49627;BME280;35527;54.616;39.786;2023-08-21T00:32:27;99787.53;;;18.08;100.00
49627;BME280;35527;54.616;39.786;2023-08-21T00:35:31;99815.31;;;18.10;100.00
49627;BME280;35527;54.616;39.786;2023-08-21T00:38:34;99807.81;;;17.93;100.00
49627;BME280;35527;54.616;39.786;2023-08-21T00:41:39;99809.28;;;17.84;100.00
49627;BME280;35527;54.616;39.786;2023-08-21T00:44:42;99825.06;;;17.83;100.00
49627;BME280;35527;54.616;39.786;2023-08-21T00:47:47;99806.34;;;17.63;100.00
49627;BME280;35527;54.616;39.786;2023-08-21T00:50:53;99792.50;;;17.61;100.00
49627;BME280;35527;54.616;39.786;2023-08-21T00:53:56;99814.38;;;17.73;100.00
49627;BME280;35527;54.616;39.786;2023-08-21T00:56:59;99808.75;;;17.66;100.00
49627;BME280;35527;54.616;39.786;2023-08-21T01:00:06;99823.41;;;17.69;100.00
49627;BME280;35527;54.616;39.786;2023-08-21T01:03:13;99818.38;;;17.66;100.00
49627;BME280;35527;54.616;39.786;2023-08-21T01:06:18;99815.53;;;17.56;100.00
49627;BME280;35527;54.616;39.786;2023-08-21T01:09:31;99828.94;;;17.64;100.00
49627;BME280;35527;54.616;39.786;2023-08-21T01:12:44;99829.97;;;17.62;100.00
49627;BME280;35527;54.616;39.786;2023-08-21T01:15:53;99831.75;;;17.61;100.00
49627;BME280;35527;54.616;39.786;2023-08-21T01:18:58;99832.59;;;17.62;100.00
49627;BME280;35527;54.616;39.786;2023-08-21T01:22:04;99814.06;;;17.52;100.00
49627;BME280;35527;54.616;39.786;2023-08-21T01:25:07;99834.47;;;17.60;100.00
49627;BME280;35527;54.616;39.786;2023-08-21T01:28:16;99834.91;;;17.66;100.00
49627;BME280;35527;54.616;39.786;2023-08-21T01:31:24;99813.25;;;17.51;100.00
49627;BME280;35527;54.616;39.786;2023-08-21T01:34:30;99842.34;;;17.72;100.00
49627;BME280;35527;54.616;39.786;2023-08-21T01:37:36;99835.84;;;17.65;100.00
49627;BME280;35527;54.616;39.786;2023-08-21T01:40:42;99845.06;;;17.71;100.00
49627;BME280;35527;54.616;39.786;2023-08-21T01:43:45;99832.19;;;17.68;100.00
49627;BME280;35527;54.616;39.786;2023-08-21T01:46:49;99845.25;;;17.68;100.00
49627;BME280;35527;54.616;39.786;2023-08-21T01:49:53;99829.88;;;17.63;100.00
49627;BME280;35527;54.616;39.786;2023-08-21T01:52:58;99827.06;;;17.66;100.00
49627;BME280;35527;54.616;39.786;2023-08-21T01:56:02;99815.09;;;17.62;100.00
49627;BME280;35527;54.616;39.786;2023-08-21T01:59:07;99818.69;;;17.61;100.00
49627;BME280;35527;54.616;39.786;2023-08-21T02:02:10;99813.13;;;17.53;100.00
49627;BME280;35527;54.616;39.786;2023-08-21T02:05:19;99806.09;;;17.53;100.00
49627;BME280;35527;54.616;39.786;2023-08-21T02:08:30;99815.31;;;17.59;100.00
49627;BME280;35527;54.616;39.786;2023-08-21T02:11:33;99813.53;;;17.60;100.00
49627;BME280;35527;54.616;39.786;2023-08-21T02:14:36;99817.22;;;17.57;100.00
49627;BME280;35527;54.616;39.786;2023-08-21T02:17:41;99829.56;;;17.68;100.00
49627;BME280;35527;54.616;39.786;2023-08-21T02:20:47;99817.63;;;17.51;100.00
49627;BME280;35527;54.616;39.786;2023-08-21T02:23:52;99826.63;;;17.60;100.00
49627;BME280;35527;54.616;39.786;2023-08-21T02:26:56;99799.84;;;17.43;100.00
49627;BME280;35527;54.616;39.786;2023-08-21T02:30:00;99822.25;;;17.60;100.00
49627;BME280;35527;54.616;39.786;2023-08-21T02:33:04;99819.31;;;17.65;100.00
49627;BME280;35527;54.616;39.786;2023-08-21T02:36:07;99812.69;;;17.59;100.00
49627;BME280;35527;54.616;39.786;2023-08-21T02:39:10;99816.47;;;17.55;100.00
49627;BME280;35527;54.616;39.786;2023-08-21T02:42:16;99818.97;;;17.56;100.00
49627;BME280;35527;54.616;39.786;2023-08-21T02:45:21;99824.63;;;17.50;100.00
49627;BME280;35527;54.616;39.786;2023-08-21T02:48:24;99808.59;;;17.42;100.00
49627;BME280;35527;54.616;39.786;2023-08-21T02:51:30;99804.66;;;17.49;100.00
49627;BME280;35527;54.616;39.786;2023-08-21T02:54:34;99821.00;;;17.66;100.00
49627;BME280;35527;54.616;39.786;2023-08-21T02:57:39;99819.50;;;17.62;100.00
49627;BME280;35527;54.616;39.786;2023-08-21T03:00:41;99802.03;;;17.49;100.00
49627;BME280;35527;54.616;39.786;2023-08-21T03:03:46;99823.59;;;17.53;100.00
49627;BME280;35527;54.616;39.786;2023-08-21T03:06:50;99818.16;;;17.43;100.00
49627;BME280;35527;54.616;39.786;2023-08-21T03:09:53;99830.00;;;17.49;100.00
49627;BME280;35527;54.616;39.786;2023-08-21T03:12:58;99821.81;;;17.41;100.00
49627;BME280;35527;54.616;39.786;2023-08-21T03:16:03;99823.28;;;17.58;100.00
49627;BME280;35527;54.616;39.786;2023-08-21T03:19:07;99808.22;;;17.48;100.00
49627;BME280;35527;54.616;39.786;2023-08-21T03:22:11;99822.44;;;17.44;100.00
49627;BME280;35527;54.616;39.786;2023-08-21T03:25:20;99824.94;;;17.33;100.00
49627;BME280;35527;54.616;39.786;2023-08-21T03:28:23;99825.84;;;17.19;100.00
49627;BME280;35527;54.616;39.786;2023-08-21T03:31:35;99819.44;;;16.98;100.00
49627;BME280;35527;54.616;39.786;2023-08-21T03:34:38;99814.72;;;16.76;100.00
49627;BME280;35527;54.616;39.786;2023-08-21T03:37:43;99835.19;;;16.83;100.00
49627;BME280;35527;54.616;39.786;2023-08-21T03:40:48;99810.91;;;16.67;100.00
49627;BME280;35527;54.616;39.786;2023-08-21T03:43:52;99801.06;;;16.58;100.00
49627;BME280;35527;54.616;39.786;2023-08-21T03:46:56;99814.38;;;16.67;100.00
49627;BME280;35527;54.616;39.786;2023-08-21T03:50:00;99819.91;;;16.90;100.00
49627;BME280;35527;54.616;39.786;2023-08-21T03:53:04;99792.97;;;16.75;100.00
49627;BME280;35527;54.616;39.786;2023-08-21T03:56:10;99816.34;;;16.91;100.00
49627;BME280;35527;54.616;39.786;2023-08-21T03:59:16;99832.00;;;16.78;100.00
49627;BME280;35527;54.616;39.786;2023-08-21T04:02:20;99838.06;;;16.79;100.00
49627;BME280;35527;54.616;39.786;2023-08-21T04:05:25;99839.84;;;16.78;100.00
49627;BME280;35527;54.616;39.786;2023-08-21T04:08:28;99839.03;;;16.78;100.00
49627;BME280;35527;54.616;39.786;2023-08-21T04:11:31;99836.78;;;16.72;100.00
49627;BME280;35527;54.616;39.786;2023-08-21T04:14:59;99844.41;;;16.75;100.00
49627;BME280;35527;54.616;39.786;2023-08-21T04:18:04;99845.94;;;16.64;100.00
49627;BME280;35527;54.616;39.786;2023-08-21T04:21:10;99843.78;;;16.71;100.00
49627;BME280;35527;54.616;39.786;2023-08-21T04:24:13;99840.31;;;16.71;100.00
49627;BME280;35527;54.616;39.786;2023-08-21T04:27:17;99835.03;;;16.58;100.00
49627;BME280;35527;54.616;39.786;2023-08-21T04:30:25;99846.69;;;16.66;100.00
49627;BME280;35527;54.616;39.786;2023-08-21T04:33:28;99842.03;;;16.57;100.00
49627;BME280;35527;54.616;39.786;2023-08-21T04:36:32;99827.44;;;16.40;100.00
49627;BME280;35527;54.616;39.786;2023-08-21T04:39:38;99848.38;;;16.53;100.00
49627;BME280;35527;54.616;39.786;2023-08-21T04:42:43;99838.88;;;16.52;100.00
49627;BME280;35527;54.616;39.786;2023-08-21T04:45:54;99823.28;;;16.51;100.00
49627;BME280;35527;54.616;39.786;2023-08-21T04:48:59;99824.31;;;16.48;100.00
49627;BME280;35527;54.616;39.786;2023-08-21T04:52:04;99848.84;;;16.60;100.00
49627;BME280;35527;54.616;39.786;2023-08-21T04:55:08;99853.13;;;16.61;100.00
49627;BME280;35527;54.616;39.786;2023-08-21T04:58:13;99847.09;;;16.46;100.00
49627;BME280;35527;54.616;39.786;2023-08-21T05:01:21;99834.66;;;16.23;100.00
49627;BME280;35527;54.616;39.786;2023-08-21T05:04:24;99847.72;;;16.23;100.00
49627;BME280;35527;54.616;39.786;2023-08-21T05:07:28;99851.88;;;16.11;100.00
49627;BME280;35527;54.616;39.786;2023-08-21T05:10:33;99846.22;;;16.04;100.00
49627;BME280;35527;54.616;39.786;2023-08-21T05:13:36;99862.91;;;16.16;100.00
49627;BME280;35527;54.616;39.786;2023-08-21T05:16:42;99859.72;;;16.11;100.00
49627;BME280;35527;54.616;39.786;2023-08-21T05:19:45;99867.28;;;16.01;100.00
49627;BME280;35527;54.616;39.786;2023-08-21T05:22:47;99874.94;;;16.04;100.00
49627;BME280;35527;54.616;39.786;2023-08-21T05:25:50;99862.00;;;16.03;100.00
49627;BME280;35527;54.616;39.786;2023-08-21T05:28:53;99872.44;;;16.17;100.00
49627;BME280;35527;54.616;39.786;2023-08-21T05:31:56;99868.03;;;16.17;100.00
49627;BME280;35527;54.616;39.786;2023-08-21T05:34:59;99874.47;;;16.26;100.00
49627;BME280;35527;54.616;39.786;2023-08-21T05:38:04;99872.13;;;16.36;100.00
49627;BME280;35527;54.616;39.786;2023-08-21T05:41:09;99848.72;;;16.34;100.00
49627;BME280;35527;54.616;39.786;2023-08-21T05:44:13;99865.00;;;16.52;100.00
49627;BME280;35527;54.616;39.786;2023-08-21T05:47:17;99866.28;;;16.59;100.00
49627;BME280;35527;54.616;39.786;2023-08-21T05:50:26;99832.75;;;16.39;100.00
49627;BME280;35527;54.616;39.786;2023-08-21T05:53:31;99851.75;;;16.55;100.00
49627;BME280;35527;54.616;39.786;2023-08-21T05:56:35;99868.13;;;16.72;100.00
49627;BME280;35527;54.616;39.786;2023-08-21T05:59:46;99869.72;;;16.74;100.00
49627;BME280;35527;54.616;39.786;2023-08-21T06:02:49;99869.34;;;16.80;100.00
49627;BME280;35527;54.616;39.786;2023-08-21T06:06:27;99837.16;;;16.65;100.00
49627;BME280;35527;54.616;39.786;2023-08-21T06:09:31;99863.09;;;16.83;100.00
49627;BME280;35527;54.616;39.786;2023-08-21T06:12:40;99866.34;;;16.86;100.00
49627;BME280;35527;54.616;39.786;2023-08-21T06:15:47;99849.22;;;16.95;100.00
49627;BME280;35527;54.616;39.786;2023-08-21T06:18:52;99855.00;;;17.00;100.00
49627;BME280;35527;54.616;39.786;2023-08-21T06:21:56;99868.41;;;17.08;100.00
49627;BME280;35527;54.616;39.786;2023-08-21T06:25:00;99862.44;;;17.06;100.00
49627;BME280;35527;54.616;39.786;2023-08-21T06:28:03;99866.09;;;17.44;100.00
49627;BME280;35527;54.616;39.786;2023-08-21T06:31:32;99870.69;;;17.53;100.00
49627;BME280;35527;54.616;39.786;2023-08-21T06:34:35;99850.50;;;17.55;100.00
49627;BME280;35527;54.616;39.786;2023-08-21T06:37:41;99839.88;;;17.84;100.00
49627;BME280;35527;54.616;39.786;2023-08-21T06:40:48;99862.47;;;18.10;100.00
49627;BME280;35527;54.616;39.786;2023-08-21T06:43:51;99849.44;;;18.21;100.00
49627;BME280;35527;54.616;39.786;2023-08-21T06:46:56;99858.22;;;18.46;100.00
49627;BME280;35527;54.616;39.786;2023-08-21T06:50:00;99848.25;;;18.38;100.00
49627;BME280;35527;54.616;39.786;2023-08-21T06:53:04;99868.19;;;18.28;100.00
49627;BME280;35527;54.616;39.786;2023-08-21T06:56:08;99860.66;;;18.23;100.00
49627;BME280;35527;54.616;39.786;2023-08-21T06:59:11;99871.59;;;18.17;100.00
49627;BME280;35527;54.616;39.786;2023-08-21T07:02:14;99860.06;;;18.07;100.00
49627;BME280;35527;54.616;39.786;2023-08-21T07:05:18;99861.63;;;17.97;100.00
49627;BME280;35527;54.616;39.786;2023-08-21T07:08:26;99871.28;;;18.09;100.00
49627;BME280;35527;54.616;39.786;2023-08-21T07:11:29;99866.44;;;18.16;100.00
49627;BME280;35527;54.616;39.786;2023-08-21T07:14:32;99851.13;;;18.22;100.00
49627;BME280;35527;54.616;39.786;2023-08-21T07:17:37;99875.00;;;18.43;100.00
49627;BME280;35527;54.616;39.786;2023-08-21T07:20:40;99872.00;;;18.61;100.00
49627;BME280;35527;54.616;39.786;2023-08-21T07:23:44;99869.97;;;19.01;100.00
49627;BME280;35527;54.616;39.786;2023-08-21T07:26:48;99866.22;;;19.52;100.00
49627;BME280;35527;54.616;39.786;2023-08-21T07:29:51;99856.53;;;19.99;100.00
49627;BME280;35527;54.616;39.786;2023-08-21T07:33:02;99867.75;;;20.12;100.00
49627;BME280;35527;54.616;39.786;2023-08-21T07:36:05;99857.75;;;19.59;100.00
49627;BME280;35527;54.616;39.786;2023-08-21T07:39:08;99856.31;;;19.09;100.00
49627;BME280;35527;54.616;39.786;2023-08-21T07:42:12;99860.97;;;18.68;100.00
49627;BME280;35527;54.616;39.786;2023-08-21T07:45:16;99870.03;;;18.52;100.00
49627;BME280;35527;54.616;39.786;2023-08-21T07:48:19;99852.22;;;18.44;100.00
49627;BME280;35527;54.616;39.786;2023-08-21T07:51:26;99859.69;;;18.37;100.00
49627;BME280;35527;54.616;39.786;2023-08-21T07:54:29;99852.59;;;18.27;100.00
49627;BME280;35527;54.616;39.786;2023-08-21T07:57:32;99873.72;;;18.49;100.00
49627;BME280;35527;54.616;39.786;2023-08-21T08:00:35;99861.97;;;18.55;100.00
49627;BME280;35527;54.616;39.786;2023-08-21T08:03:38;99869.59;;;18.58;100.00
49627;BME280;35527;54.616;39.786;2023-08-21T08:06:44;99878.97;;;18.86;100.00
49627;BME280;35527;54.616;39.786;2023-08-21T08:09:47;99878.91;;;18.99;100.00
49627;BME280;35527;54.616;39.786;2023-08-21T08:12:51;99862.00;;;18.79;100.00
49627;BME280;35527;54.616;39.786;2023-08-21T08:15:54;99875.72;;;18.82;100.00
49627;BME280;35527;54.616;39.786;2023-08-21T08:19:00;99866.03;;;18.59;100.00
49627;BME280;35527;54.616;39.786;2023-08-21T08:22:03;99879.25;;;18.57;100.00
49627;BME280;35527;54.616;39.786;2023-08-21T08:25:06;99881.78;;;18.46;100.00
49627;BME280;35527;54.616;39.786;2023-08-21T08:28:10;99863.81;;;18.29;100.00
49627;BME280;35527;54.616;39.786;2023-08-21T08:31:20;99872.94;;;18.60;100.00
49627;BME280;35527;54.616;39.786;2023-08-21T08:34:23;99872.91;;;18.73;100.00
49627;BME280;35527;54.616;39.786;2023-08-21T08:37:26;99870.72;;;18.66;100.00
49627;BME280;35527;54.616;39.786;2023-08-21T08:40:30;99860.03;;;18.57;100.00
49627;BME280;35527;54.616;39.786;2023-08-21T08:43:40;99856.28;;;18.61;100.00
49627;BME280;35527;54.616;39.786;2023-08-21T08:46:44;99858.28;;;18.57;100.00
49627;BME280;35527;54.616;39.786;2023-08-21T08:49:48;99858.75;;;18.62;100.00
49627;BME280;35527;54.616;39.786;2023-08-21T08:52:52;99849.47;;;18.58;100.00
49627;BME280;35527;54.616;39.786;2023-08-21T08:56:02;99863.84;;;18.89;100.00
49627;BME280;35527;54.616;39.786;2023-08-21T08:59:08;99866.81;;;19.09;100.00
49627;BME280;35527;54.616;39.786;2023-08-21T09:02:11;99859.59;;;19.00;99.89
49627;BME280;35527;54.616;39.786;2023-08-21T09:05:16;99854.34;;;19.00;99.33
49627;BME280;35527;54.616;39.786;2023-08-21T09:08:20;99874.44;;;19.12;100.00
49627;BME280;35527;54.616;39.786;2023-08-21T09:11:24;99873.66;;;18.99;98.19
49627;BME280;35527;54.616;39.786;2023-08-21T09:14:30;99875.41;;;18.87;98.50
49627;BME280;35527;54.616;39.786;2023-08-21T09:17:34;99857.34;;;18.82;98.57
49627;BME280;35527;54.616;39.786;2023-08-21T09:20:39;99880.75;;;18.85;97.78
49627;BME280;35527;54.616;39.786;2023-08-21T09:23:41;99877.72;;;18.79;97.63
49627;BME280;35527;54.616;39.786;2023-08-21T09:26:44;99884.34;;;18.72;97.32
49627;BME280;35527;54.616;39.786;2023-08-21T09:29:51;99875.78;;;18.57;97.69
49627;BME280;35527;54.616;39.786;2023-08-21T09:32:56;99877.69;;;18.55;99.17
49627;BME280;35527;54.616;39.786;2023-08-21T09:36:00;99874.69;;;18.35;100.00
49627;BME280;35527;54.616;39.786;2023-08-21T09:39:03;99900.44;;;18.54;98.87
49627;BME280;35527;54.616;39.786;2023-08-21T09:42:10;99882.50;;;18.98;98.28
49627;BME280;35527;54.616;39.786;2023-08-21T09:45:20;99895.84;;;19.30;94.45
49627;BME280;35527;54.616;39.786;2023-08-21T09:48:26;99874.41;;;19.36;93.93
49627;BME280;35527;54.616;39.786;2023-08-21T09:51:33;99876.00;;;19.50;88.92
49627;BME280;35527;54.616;39.786;2023-08-21T09:54:56;99891.47;;;19.77;88.41
49627;BME280;35527;54.616;39.786;2023-08-21T09:58:02;99882.91;;;20.54;84.50
49627;BME280;35527;54.616;39.786;2023-08-21T10:01:07;99883.88;;;21.07;78.67
49627;BME280;35527;54.616;39.786;2023-08-21T10:04:17;99876.94;;;21.39;74.88
49627;BME280;35527;54.616;39.786;2023-08-21T10:07:25;99875.25;;;21.79;73.05
49627;BME280;35527;54.616;39.786;2023-08-21T10:10:35;99865.53;;;22.01;71.69
49627;BME280;35527;54.616;39.786;2023-08-21T10:13:39;99848.09;;;22.50;69.06
49627;BME280;35527;54.616;39.786;2023-08-21T10:16:43;99862.56;;;22.94;64.22
49627;BME280;35527;54.616;39.786;2023-08-21T10:19:52;99862.50;;;22.36;66.13
49627;BME280;35527;54.616;39.786;2023-08-21T10:23:01;99840.47;;;21.86;68.90
49627;BME280;35527;54.616;39.786;2023-08-21T10:26:09;99861.28;;;21.58;71.69
49627;BME280;35527;54.616;39.786;2023-08-21T10:29:13;99862.63;;;21.20;75.14
49627;BME280;35527;54.616;39.786;2023-08-21T10:32:22;99860.94;;;21.72;74.43
49627;BME280;35527;54.616;39.786;2023-08-21T10:35:30;99853.56;;;22.18;71.51
49627;BME280;35527;54.616;39.786;2023-08-21T10:39:01;99861.28;;;22.60;64.99
49627;BME280;35527;54.616;39.786;2023-08-21T10:42:11;99850.22;;;22.85;64.21
49627;BME280;35527;54.616;39.786;2023-08-21T10:45:18;99854.78;;;22.64;63.12
49627;BME280;35527;54.616;39.786;2023-08-21T10:48:22;99845.78;;;23.44;61.42
49627;BME280;35527;54.616;39.786;2023-08-21T10:51:29;99855.38;;;23.26;60.19
49627;BME280;35527;54.616;39.786;2023-08-21T10:54:48;99848.41;;;23.34;58.92
49627;BME280;35527;54.616;39.786;2023-08-21T10:57:52;99849.50;;;22.83;60.49
49627;BME280;35527;54.616;39.786;2023-08-21T11:01:01;99845.47;;;22.60;63.47
49627;BME280;35527;54.616;39.786;2023-08-21T11:04:04;99836.31;;;22.64;61.94
49627;BME280;35527;54.616;39.786;2023-08-21T11:07:07;99836.72;;;22.59;61.35
49627;BME280;35527;54.616;39.786;2023-08-21T11:10:22;99831.31;;;22.80;61.39
49627;BME280;35527;54.616;39.786;2023-08-21T11:13:26;99832.47;;;23.16;57.64
49627;BME280;35527;54.616;39.786;2023-08-21T11:16:28;99828.13;;;23.25;57.91
49627;BME280;35527;54.616;39.786;2023-08-21T11:19:34;99817.59;;;23.15;59.22
49627;BME280;35527;54.616;39.786;2023-08-21T11:22:39;99834.03;;;23.76;57.87
49627;BME280;35527;54.616;39.786;2023-08-21T11:25:45;99830.22;;;24.25;55.26
49627;BME280;35527;54.616;39.786;2023-08-21T11:28:49;99827.44;;;24.72;52.22
49627;BME280;35527;54.616;39.786;2023-08-21T11:31:53;99825.59;;;24.00;53.03
49627;BME280;35527;54.616;39.786;2023-08-21T11:34:56;99816.09;;;24.35;53.19
49627;BME280;35527;54.616;39.786;2023-08-21T11:38:03;99822.69;;;24.76;51.03
49627;BME280;35527;54.616;39.786;2023-08-21T11:41:06;99806.72;;;24.86;50.75
49627;BME280;35527;54.616;39.786;2023-08-21T11:44:15;99813.22;;;24.91;49.65
49627;BME280;35527;54.616;39.786;2023-08-21T11:47:20;99796.69;;;24.98;49.51
49627;BME280;35527;54.616;39.786;2023-08-21T11:50:25;99820.25;;;24.47;50.01
49627;BME280;35527;54.616;39.786;2023-08-21T11:53:39;99810.44;;;24.30;52.37
49627;BME280;35527;54.616;39.786;2023-08-21T11:56:42;99821.47;;;24.53;50.97
49627;BME280;35527;54.616;39.786;2023-08-21T11:59:52;99782.91;;;23.48;52.10
49627;BME280;35527;54.616;39.786;2023-08-21T12:02:56;99806.34;;;22.84;53.90
49627;BME280;35527;54.616;39.786;2023-08-21T12:05:59;99798.13;;;23.16;54.18
49627;BME280;35527;54.616;39.786;2023-08-21T12:09:06;99809.06;;;23.51;54.08
49627;BME280;35527;54.616;39.786;2023-08-21T12:12:09;99795.72;;;23.52;53.07
49627;BME280;35527;54.616;39.786;2023-08-21T12:15:17;99814.97;;;22.96;54.60
49627;BME280;35527;54.616;39.786;2023-08-21T12:18:20;99788.13;;;22.81;55.59
49627;BME280;35527;54.616;39.786;2023-08-21T12:21:25;99808.72;;;23.07;55.27
49627;BME280;35527;54.616;39.786;2023-08-21T12:24:28;99783.00;;;23.19;55.34
49627;BME280;35527;54.616;39.786;2023-08-21T12:27:31;99801.00;;;23.43;54.70
49627;BME280;35527;54.616;39.786;2023-08-21T12:30:35;99802.44;;;23.27;53.67
49627;BME280;35527;54.616;39.786;2023-08-21T12:33:40;99798.00;;;22.79;54.95
49627;BME280;35527;54.616;39.786;2023-08-21T12:36:43;99787.41;;;22.60;56.61
49627;BME280;35527;54.616;39.786;2023-08-21T12:39:48;99794.69;;;22.97;55.26
49627;BME280;35527;54.616;39.786;2023-08-21T12:42:51;99775.63;;;23.03;53.83
49627;BME280;35527;54.616;39.786;2023-08-21T12:45:55;99782.25;;;23.26;54.16
49627;BME280;35527;54.616;39.786;2023-08-21T12:48:58;99780.75;;;23.24;53.71
49627;BME280;35527;54.616;39.786;2023-08-21T12:52:03;99769.47;;;23.31;53.70
49627;BME280;35527;54.616;39.786;2023-08-21T12:55:08;99776.75;;;23.57;53.60
49627;BME280;35527;54.616;39.786;2023-08-21T12:58:13;99776.34;;;23.61;53.08
49627;BME280;35527;54.616;39.786;2023-08-21T13:01:15;99763.59;;;23.47;53.01
49627;BME280;35527;54.616;39.786;2023-08-21T13:04:19;99760.97;;;23.37;54.26
49627;BME280;35527;54.616;39.786;2023-08-21T13:07:21;99755.84;;;23.36;53.26
49627;BME280;35527;54.616;39.786;2023-08-21T13:10:25;99765.72;;;23.34;53.59
49627;BME280;35527;54.616;39.786;2023-08-21T13:13:28;99765.47;;;23.17;55.86
49627;BME280;35527;54.616;39.786;2023-08-21T13:16:32;99767.44;;;23.06;55.47
49627;BME280;35527;54.616;39.786;2023-08-21T13:19:35;99759.53;;;22.96;55.33
49627;BME280;35527;54.616;39.786;2023-08-21T13:22:45;99763.41;;;22.63;56.56
49627;BME280;35527;54.616;39.786;2023-08-21T13:25:48;99745.06;;;22.32;57.56
49627;BME280;35527;54.616;39.786;2023-08-21T13:28:53;99755.41;;;22.14;57.58
49627;BME280;35527;54.616;39.786;2023-08-21T13:31:58;99758.56;;;22.08;58.28
49627;BME280;35527;54.616;39.786;2023-08-21T13:35:02;99737.19;;;22.01;57.54
49627;BME280;35527;54.616;39.786;2023-08-21T13:38:09;99735.19;;;22.24;57.11
49627;BME280;35527;54.616;39.786;2023-08-21T13:41:13;99741.03;;;22.47;57.22
49627;BME280;35527;54.616;39.786;2023-08-21T13:44:18;99716.75;;;22.24;53.60
49627;BME280;35527;54.616;39.786;2023-08-21T13:47:23;99726.31;;;22.25;54.91
49627;BME280;35527;54.616;39.786;2023-08-21T13:50:28;99735.50;;;22.41;53.36
49627;BME280;35527;54.616;39.786;2023-08-21T13:53:31;99731.63;;;22.64;53.61
49627;BME280;35527;54.616;39.786;2023-08-21T13:56:35;99716.84;;;22.91;50.73
49627;BME280;35527;54.616;39.786;2023-08-21T13:59:38;99731.59;;;23.13;50.49
49627;BME280;35527;54.616;39.786;2023-08-21T14:02:41;99711.56;;;23.10;49.76
49627;BME280;35527;54.616;39.786;2023-08-21T14:05:44;99724.31;;;23.25;49.56
49627;BME280;35527;54.616;39.786;2023-08-21T14:08:47;99703.81;;;22.89;50.01
49627;BME280;35527;54.616;39.786;2023-08-21T14:11:51;99709.25;;;22.78;49.35
49627;BME280;35527;54.616;39.786;2023-08-21T14:14:54;99719.94;;;22.67;50.58
49627;BME280;35527;54.616;39.786;2023-08-21T14:17:59;99716.34;;;22.58;49.80
49627;BME280;35527;54.616;39.786;2023-08-21T14:21:02;99712.44;;;22.43;48.77
49627;BME280;35527;54.616;39.786;2023-08-21T14:24:06;99688.84;;;22.22;49.77
49627;BME280;35527;54.616;39.786;2023-08-21T14:27:10;99720.75;;;22.29;49.72
49627;BME280;35527;54.616;39.786;2023-08-21T14:30:13;99718.97;;;22.29;50.10
49627;BME280;35527;54.616;39.786;2023-08-21T14:33:17;99706.34;;;22.33;49.58
49627;BME280;35527;54.616;39.786;2023-08-21T14:36:23;99703.41;;;22.26;49.65
49627;BME280;35527;54.616;39.786;2023-08-21T14:39:27;99702.00;;;22.12;48.79
49627;BME280;35527;54.616;39.786;2023-08-21T14:42:32;99698.00;;;22.18;49.66
49627;BME280;35527;54.616;39.786;2023-08-21T14:45:35;99697.50;;;21.93;50.58
49627;BME280;35527;54.616;39.786;2023-08-21T14:48:38;99694.09;;;21.62;51.92
49627;BME280;35527;54.616;39.786;2023-08-21T14:51:41;99699.16;;;21.44;53.04
49627;BME280;35527;54.616;39.786;2023-08-21T14:54:48;99715.81;;;21.24;54.18
49627;BME280;35527;54.616;39.786;2023-08-21T14:57:51;99689.97;;;20.87;54.18
49627;BME280;35527;54.616;39.786;2023-08-21T15:00:55;99709.47;;;20.84;55.31
49627;BME280;35527;54.616;39.786;2023-08-21T15:04:00;99691.38;;;20.70;55.40
49627;BME280;35527;54.616;39.786;2023-08-21T15:07:04;99707.56;;;20.86;54.88
49627;BME280;35527;54.616;39.786;2023-08-21T15:10:07;99706.88;;;20.94;55.38
49627;BME280;35527;54.616;39.786;2023-08-21T15:13:11;99712.69;;;21.09;54.22
49627;BME280;35527;54.616;39.786;2023-08-21T15:16:13;99685.41;;;21.10;54.90
49627;BME280;35527;54.616;39.786;2023-08-21T15:19:19;99711.56;;;21.11;53.99
49627;BME280;35527;54.616;39.786;2023-08-21T15:22:21;99699.75;;;21.06;54.54
49627;BME280;35527;54.616;39.786;2023-08-21T15:25:27;99698.38;;;21.02;54.48
49627;BME280;35527;54.616;39.786;2023-08-21T15:28:31;99705.72;;;21.08;54.31
49627;BME280;35527;54.616;39.786;2023-08-21T15:31:36;99704.19;;;21.05;54.28
49627;BME280;35527;54.616;39.786;2023-08-21T15:34:38;99700.44;;;20.98;54.93
49627;BME280;35527;54.616;39.786;2023-08-21T15:37:41;99696.81;;;20.99;54.57
49627;BME280;35527;54.616;39.786;2023-08-21T15:40:44;99695.53;;;20.93;55.00
49627;BME280;35527;54.616;39.786;2023-08-21T15:43:48;99675.59;;;20.70;55.98
49627;BME280;35527;54.616;39.786;2023-08-21T15:46:52;99705.25;;;20.72;56.79
49627;BME280;35527;54.616;39.786;2023-08-21T15:50:05;99693.97;;;20.49;56.46
49627;BME280;35527;54.616;39.786;2023-08-21T15:53:10;99689.38;;;20.30;57.66
49627;BME280;35527;54.616;39.786;2023-08-21T15:56:16;99692.03;;;20.19;57.62
49627;BME280;35527;54.616;39.786;2023-08-21T15:59:19;99726.91;;;20.21;58.25
49627;BME280;35527;54.616;39.786;2023-08-21T16:02:25;99726.81;;;20.11;59.17